createdAt,value
2022-10-24T00:04:13.380Z,10.00
2022-10-24T00:09:10.851Z,10.10
2022-10-24T00:14:08.051Z,9.90
2022-10-24T00:19:05.282Z,9.90
2022-10-24T00:24:02.441Z,9.90
2022-10-24T00:29:03.271Z,9.90
2022-10-24T00:34:01.355Z,9.70
2022-10-24T00:38:59.911Z,9.70
2022-10-24T00:44:30.197Z,9.70
2022-10-24T00:49:37.695Z,9.70
2022-10-24T00:54:38.398Z,9.70
2022-10-24T00:59:38.755Z,9.70
2022-10-24T01:04:35.951Z,9.60
2022-10-24T01:10:03.826Z,9.60
2022-10-24T01:15:26.958Z,9.60
2022-10-24T01:21:02.201Z,9.80
2022-10-24T01:26:43.835Z,9.80
2022-10-24T01:31:45.330Z,9.80
2022-10-24T01:36:57.039Z,10.00
2022-10-24T01:41:58.312Z,10.10
2022-10-24T01:47:02.325Z,10.10
2022-10-24T01:52:03.381Z,10.10
2022-10-24T01:57:01.922Z,10.10
2022-10-24T02:02:04.951Z,10.10
2022-10-24T02:07:04.699Z,10.10
2022-10-24T02:12:02.951Z,10.00
2022-10-24T02:17:02.200Z,10.10
2022-10-24T02:22:22.379Z,10.00
2022-10-24T02:27:30.059Z,10.00
2022-10-24T02:32:35.864Z,10.10
2022-10-24T02:37:36.789Z,10.10
2022-10-24T02:42:36.036Z,9.90
2022-10-24T02:47:35.341Z,9.90
2022-10-24T02:52:34.642Z,9.80
2022-10-24T02:57:32.001Z,9.90
2022-10-24T03:02:29.275Z,9.80
2022-10-24T03:07:26.499Z,9.80
2022-10-24T03:12:24.444Z,9.80
2022-10-24T03:17:22.069Z,9.80
2022-10-24T03:22:19.430Z,9.80
2022-10-24T03:27:16.744Z,9.80
2022-10-24T03:32:14.725Z,9.70
2022-10-24T03:37:12.318Z,9.70
2022-10-24T03:42:09.939Z,9.80
2022-10-24T03:47:07.680Z,9.90
2022-10-24T03:52:05.665Z,9.80
2022-10-24T03:57:03.453Z,9.80
2022-10-24T04:02:02.951Z,9.90
2022-10-24T04:07:05.956Z,9.80
2022-10-24T04:12:04.270Z,9.90
2022-10-24T04:17:04.473Z,10.00
2022-10-24T04:22:03.423Z,10.10
2022-10-24T04:27:01.474Z,10.10
2022-10-24T04:32:04.382Z,10.10
2022-10-24T04:37:01.767Z,10.10
2022-10-24T04:41:59.611Z,10.00
2022-10-24T04:46:57.337Z,10.00
2022-10-24T04:51:54.612Z,10.00
2022-10-24T04:56:52.413Z,10.20
2022-10-24T05:01:49.860Z,10.30
2022-10-24T05:06:47.612Z,10.20
2022-10-24T05:11:44.826Z,10.30
2022-10-24T05:16:42.247Z,10.40
2022-10-24T05:21:39.480Z,10.50
2022-10-24T05:26:37.028Z,10.50
2022-10-24T05:31:34.576Z,10.40
2022-10-24T05:36:31.999Z,10.50
2022-10-24T05:41:29.379Z,10.40
2022-10-24T05:46:27.195Z,10.40
2022-10-24T05:51:24.575Z,10.40
2022-10-24T05:56:21.746Z,10.50
2022-10-24T06:01:19.070Z,10.50
2022-10-24T06:06:16.624Z,10.50
2022-10-24T06:11:14.388Z,10.60
2022-10-24T06:16:12.439Z,10.60
2022-10-24T06:21:10.766Z,10.70
2022-10-24T06:26:11.142Z,10.70
2022-10-24T06:31:20.990Z,10.70
2022-10-24T06:36:18.220Z,10.80
2022-10-24T06:41:17.494Z,10.90
2022-10-24T06:46:17.821Z,11.00
2022-10-24T06:51:16.731Z,11.00
2022-10-24T06:56:14.925Z,11.10
2022-10-24T07:01:19.127Z,11.20
2022-10-24T07:06:25.782Z,11.20
2022-10-24T07:11:26.915Z,11.40
2022-10-24T07:16:25.311Z,11.50
2022-10-24T07:21:25.780Z,11.70
2022-10-24T07:26:24.780Z,11.70
2022-10-24T07:31:24.194Z,11.80
2022-10-24T07:36:24.547Z,11.80
2022-10-24T07:41:22.214Z,11.90
2022-10-24T07:46:19.764Z,11.80
2022-10-24T07:51:18.369Z,11.90
2022-10-24T07:56:18.948Z,12.10
2022-10-24T08:01:20.100Z,12.20
2022-10-24T08:06:21.747Z,12.30
2022-10-24T08:11:22.245Z,12.60
2022-10-24T08:16:22.085Z,12.80
2022-10-24T08:21:21.505Z,13.00
2022-10-24T08:26:21.673Z,13.10
2022-10-24T08:31:22.837Z,13.00
2022-10-24T08:36:30.269Z,12.90
2022-10-24T08:41:38.947Z,12.90
2022-10-24T08:46:49.166Z,12.90
2022-10-24T08:51:57.719Z,13.00
2022-10-24T08:56:58.229Z,13.10
2022-10-24T09:02:03.457Z,13.10
2022-10-24T09:07:14.364Z,13.30
2022-10-24T09:12:13.720Z,13.40
2022-10-24T09:17:32.577Z,13.40
2022-10-24T09:22:33.902Z,14.00
2022-10-24T09:27:35.680Z,14.50
2022-10-24T09:32:36.147Z,14.70
2022-10-24T09:38:05.488Z,15.50
2022-10-24T09:43:11.610Z,17.10
2022-10-24T09:48:17.780Z,17.70
2022-10-24T09:53:24.710Z,16.10
2022-10-24T09:58:32.564Z,15.30
2022-10-24T10:03:30.607Z,16.20
2022-10-24T10:08:30.440Z,15.70
2022-10-24T10:13:29.538Z,15.00
2022-10-24T10:18:38.719Z,14.60
2022-10-24T10:23:54.042Z,14.50
2022-10-24T10:29:16.501Z,14.60
2022-10-24T10:34:16.101Z,14.70
2022-10-24T10:39:34.641Z,14.90
2022-10-24T10:44:59.776Z,15.30
2022-10-24T10:49:58.742Z,15.30
2022-10-24T10:55:02.269Z,15.60
2022-10-24T11:00:39.109Z,15.70
2022-10-24T11:05:54.244Z,15.70
2022-10-24T11:11:04.054Z,15.60
2022-10-24T11:16:05.779Z,15.80
2022-10-24T11:21:06.013Z,15.60
2022-10-24T11:26:27.658Z,15.50
2022-10-24T11:31:39.587Z,15.40
2022-10-24T11:36:54.837Z,15.90
2022-10-24T11:42:08.677Z,16.00
2022-10-24T11:47:24.416Z,16.60
2022-10-24T11:52:29.233Z,16.90
2022-10-24T11:57:30.250Z,16.70
2022-10-24T12:03:08.509Z,16.50
2022-10-24T12:08:39.702Z,16.60
2022-10-24T12:13:42.633Z,16.50
2022-10-24T12:18:47.344Z,16.70
2022-10-24T12:23:57.767Z,17.00
2022-10-24T12:29:07.994Z,17.20
2022-10-24T12:34:19.052Z,17.00
2022-10-24T12:39:33.233Z,16.70
2022-10-24T12:44:33.657Z,16.40
2022-10-24T12:49:32.899Z,16.40
2022-10-24T12:54:46.643Z,16.50
2022-10-24T12:59:53.857Z,16.40
2022-10-24T13:05:21.329Z,16.50
2022-10-24T13:10:38.062Z,16.50
2022-10-24T13:16:01.369Z,16.40
2022-10-24T13:21:17.363Z,16.50
2022-10-24T13:26:44.920Z,16.20
2022-10-24T13:31:45.063Z,16.10
2022-10-24T13:36:43.447Z,16.20
2022-10-24T13:41:45.896Z,16.20
2022-10-24T13:46:54.234Z,16.10
2022-10-24T13:51:59.635Z,16.00
2022-10-24T13:57:22.761Z,15.80
2022-10-24T14:02:28.400Z,15.70
2022-10-24T14:07:33.841Z,15.70
2022-10-24T14:12:36.491Z,15.70
2022-10-24T14:17:35.941Z,15.60
2022-10-24T14:22:40.080Z,15.70
2022-10-24T14:27:37.467Z,15.80
2022-10-24T14:32:34.711Z,15.90
2022-10-24T14:37:35.823Z,16.00
2022-10-24T14:42:39.513Z,15.90
2022-10-24T14:47:39.158Z,15.80
2022-10-24T14:52:37.348Z,15.60
2022-10-24T14:57:36.967Z,15.50
2022-10-24T15:02:43.144Z,15.50
2022-10-24T15:07:52.311Z,15.40
2022-10-24T15:13:12.010Z,15.30
2022-10-24T15:18:18.569Z,15.20
2022-10-24T15:23:31.904Z,15.20
2022-10-24T15:29:17.035Z,15.20
2022-10-24T15:34:19.661Z,15.20
2022-10-24T15:39:20.457Z,15.10
2022-10-24T15:44:29.835Z,15.00
2022-10-24T15:49:29.133Z,15.00
2022-10-24T15:54:29.530Z,15.00
2022-10-24T15:59:27.000Z,15.00
2022-10-24T16:04:24.838Z,14.90
2022-10-24T16:09:25.438Z,14.90
2022-10-24T16:14:25.883Z,14.80
2022-10-24T16:19:24.275Z,14.80
2022-10-24T16:24:21.615Z,14.70
2022-10-24T16:29:18.959Z,14.70
2022-10-24T16:34:16.592Z,14.70
2022-10-24T16:39:34.033Z,14.70
2022-10-24T16:44:33.443Z,14.70
2022-10-24T16:49:31.584Z,14.70
2022-10-24T16:54:28.887Z,14.70
2022-10-24T16:59:26.493Z,14.70
2022-10-24T17:04:25.922Z,14.70
2022-10-24T17:09:26.182Z,14.70
2022-10-24T17:14:23.471Z,14.70
2022-10-24T17:19:20.721Z,14.70
2022-10-24T17:24:21.943Z,14.70
2022-10-24T17:29:32.491Z,14.80
2022-10-24T17:34:29.915Z,14.70
2022-10-24T17:39:32.895Z,14.60
2022-10-24T17:44:30.397Z,14.60
2022-10-24T17:49:27.755Z,14.50
2022-10-24T17:54:25.006Z,14.40
2022-10-24T17:59:22.302Z,14.40
2022-10-24T18:04:19.707Z,14.50
2022-10-24T18:09:17.044Z,14.50
2022-10-24T18:14:14.486Z,14.50
2022-10-24T18:19:11.854Z,14.40
2022-10-24T18:24:09.310Z,14.40
2022-10-24T18:29:18.894Z,14.50
2022-10-24T18:34:16.510Z,14.60
2022-10-24T18:39:13.982Z,14.70
2022-10-24T18:44:36.504Z,14.80
2022-10-24T18:49:35.691Z,14.30
2022-10-24T18:54:51.365Z,14.60
2022-10-24T18:59:48.753Z,14.30
2022-10-24T19:05:05.672Z,14.10
2022-10-24T19:10:03.198Z,13.90
2022-10-24T19:15:00.726Z,13.80
2022-10-24T19:19:59.812Z,13.70
2022-10-24T19:24:59.796Z,13.60
2022-10-24T19:29:57.002Z,13.60
2022-10-24T19:34:54.272Z,13.50
2022-10-24T19:39:51.907Z,13.50
2022-10-24T19:44:54.360Z,13.40
2022-10-24T19:49:52.360Z,13.40
2022-10-24T19:54:49.662Z,13.30
2022-10-24T19:59:47.221Z,13.20
2022-10-24T20:04:46.772Z,13.20
2022-10-24T20:09:46.379Z,13.20
2022-10-24T20:14:43.551Z,13.20
2022-10-24T20:19:41.133Z,13.20
2022-10-24T20:24:38.399Z,13.10
2022-10-24T20:29:36.843Z,13.00
2022-10-24T20:34:34.043Z,13.00
2022-10-24T20:39:31.291Z,13.00
2022-10-24T20:44:28.666Z,13.00
2022-10-24T20:49:26.247Z,13.00
2022-10-24T20:54:23.529Z,13.00
2022-10-24T20:59:21.152Z,12.90
2022-10-24T21:04:20.776Z,13.00
2022-10-24T21:09:18.322Z,12.90
2022-10-24T21:14:18.186Z,12.90
2022-10-24T21:19:15.705Z,12.80
2022-10-24T21:24:18.084Z,12.70
2022-10-24T21:29:32.302Z,12.70
2022-10-24T21:34:34.185Z,12.70
2022-10-24T21:39:32.349Z,12.70
2022-10-24T21:44:29.772Z,12.70
2022-10-24T21:49:27.081Z,12.70
2022-10-24T21:54:25.620Z,12.70
2022-10-24T21:59:23.460Z,12.80
2022-10-24T22:04:27.471Z,12.80
2022-10-24T22:09:24.870Z,12.80
2022-10-24T22:14:22.241Z,12.80
2022-10-24T22:19:19.643Z,12.80
2022-10-24T22:24:23.050Z,12.80
2022-10-24T22:29:23.114Z,12.80
2022-10-24T22:34:22.473Z,12.80
2022-10-24T22:39:21.862Z,12.80
2022-10-24T22:44:21.008Z,12.70
2022-10-24T22:49:37.026Z,12.70
2022-10-24T22:54:36.476Z,12.70
2022-10-24T22:59:34.070Z,12.70
2022-10-24T23:10:50.049Z,12.70
2022-10-24T23:15:47.418Z,12.70
2022-10-24T23:21:36.962Z,12.70
2022-10-24T23:27:04.615Z,12.60
2022-10-24T23:32:03.160Z,12.60
2022-10-24T23:37:05.582Z,12.60
2022-10-24T23:42:05.042Z,12.70
2022-10-24T23:47:25.506Z,12.70
2022-10-24T23:52:35.903Z,12.70
2022-10-24T23:57:33.049Z,12.60
